createdAt,value
2022-10-11T00:00:43.752Z,44.95
2022-10-11T00:01:44.078Z,44.95
2022-10-11T00:02:44.027Z,44.95
2022-10-11T00:03:44.159Z,45.19
2022-10-11T00:04:44.289Z,45.05
2022-10-11T00:05:44.433Z,45.00
2022-10-11T00:06:44.687Z,45.24
2022-10-11T00:07:44.731Z,45.05
2022-10-11T00:08:44.811Z,45.24
2022-10-11T00:09:44.939Z,45.10
2022-10-11T00:10:45.087Z,44.85
2022-10-11T00:11:45.316Z,44.71
2022-10-11T00:12:45.307Z,44.81
2022-10-11T00:13:45.446Z,44.66
2022-10-11T00:14:45.584Z,44.76
2022-10-11T00:15:45.706Z,45.10
2022-10-11T00:16:45.970Z,45.00
2022-10-11T00:17:45.955Z,45.05
2022-10-11T00:18:46.087Z,45.39
2022-10-11T00:19:46.227Z,45.59
2022-10-11T00:20:46.355Z,45.74
2022-10-11T00:21:46.624Z,45.99
2022-10-11T00:22:46.649Z,45.74
2022-10-11T00:23:46.741Z,45.84
2022-10-11T00:24:46.875Z,46.04
2022-10-11T00:25:47.003Z,46.04
2022-10-11T00:26:47.266Z,46.14
2022-10-11T00:27:47.272Z,46.45
2022-10-11T00:28:47.437Z,46.35
2022-10-11T00:29:47.535Z,46.04
2022-10-11T00:30:47.664Z,46.30
2022-10-11T00:31:47.822Z,46.30
2022-10-11T00:32:47.921Z,46.40
2022-10-11T00:33:48.045Z,46.30
2022-10-11T00:34:48.197Z,46.14
2022-10-11T00:35:48.334Z,46.35
2022-10-11T00:36:48.669Z,46.61
2022-10-11T00:37:48.613Z,46.30
2022-10-11T00:38:48.725Z,46.61
2022-10-11T00:39:48.853Z,46.97
2022-10-11T00:40:48.990Z,47.05
2022-10-11T00:41:49.192Z,47.08
2022-10-11T00:42:49.259Z,47.18
2022-10-11T00:43:49.410Z,47.24
2022-10-11T00:44:49.549Z,47.51
2022-10-11T00:45:49.693Z,47.56
2022-10-11T00:46:53.656Z,47.64
2022-10-11T00:47:50.980Z,47.72
2022-10-11T00:48:50.110Z,48.11
2022-10-11T00:49:50.235Z,48.30
2022-10-11T00:50:50.373Z,48.36
2022-10-11T00:51:50.603Z,48.61
2022-10-11T00:52:50.640Z,48.50
2022-10-11T00:53:50.774Z,48.58
2022-10-11T00:54:50.918Z,48.67
2022-10-11T00:55:50.990Z,48.56
2022-10-11T00:56:51.187Z,48.58
2022-10-11T00:57:51.267Z,48.44
2022-10-11T00:58:51.409Z,48.53
2022-10-11T00:59:51.539Z,48.39
2022-10-11T01:00:51.693Z,48.50
2022-10-11T01:01:51.881Z,48.30
2022-10-11T01:02:51.935Z,48.28
2022-10-11T01:03:52.085Z,48.36
2022-10-11T01:05:11.436Z,48.36
2022-10-11T01:05:53.297Z,48.56
2022-10-11T01:06:52.434Z,48.53
2022-10-11T01:07:52.565Z,48.53
2022-10-11T01:08:52.713Z,48.78
2022-10-11T01:09:52.855Z,48.70
2022-10-11T01:10:53.004Z,48.84
2022-10-11T01:11:53.243Z,48.61
2022-10-11T01:12:53.235Z,48.96
2022-10-11T01:13:53.389Z,48.84
2022-10-11T01:14:53.523Z,49.10
2022-10-11T01:15:53.676Z,49.19
2022-10-11T01:16:53.872Z,49.10
2022-10-11T01:17:53.972Z,49.10
2022-10-11T01:18:54.065Z,49.13
2022-10-11T01:19:54.211Z,49.36
2022-10-11T01:20:54.351Z,49.19
2022-10-11T01:21:54.644Z,49.27
2022-10-11T01:22:54.634Z,49.30
2022-10-11T01:23:54.709Z,49.36
2022-10-11T01:24:54.853Z,49.57
2022-10-11T01:25:55.002Z,49.83
2022-10-11T01:26:55.143Z,50.07
2022-10-11T01:27:55.229Z,49.89
2022-10-11T01:28:55.416Z,50.31
2022-10-11T01:29:55.500Z,50.19
2022-10-11T01:30:55.619Z,50.31
2022-10-11T01:31:55.767Z,50.28
2022-10-11T01:32:55.927Z,50.53
2022-10-11T01:33:56.034Z,50.31
2022-10-11T01:34:56.167Z,50.40
2022-10-11T01:35:56.309Z,50.83
2022-10-11T01:36:56.627Z,50.40
2022-10-11T01:37:56.577Z,50.68
2022-10-11T01:38:56.736Z,50.80
2022-10-11T01:39:56.848Z,50.80
2022-10-11T01:40:56.988Z,50.83
2022-10-11T01:41:57.146Z,50.71
2022-10-11T01:42:57.247Z,50.96
2022-10-11T01:43:57.375Z,51.05
2022-10-11T01:44:57.515Z,51.08
2022-10-11T01:45:57.656Z,51.02
2022-10-11T01:46:57.887Z,51.49
2022-10-11T01:47:57.943Z,51.24
2022-10-11T01:48:58.054Z,51.43
2022-10-11T01:49:58.163Z,51.30
2022-10-11T01:50:58.297Z,51.24
2022-10-11T01:51:58.483Z,51.65
2022-10-11T01:52:58.583Z,51.40
2022-10-11T01:53:58.672Z,51.34
2022-10-11T01:55:09.512Z,51.40
2022-10-11T01:55:59.944Z,51.37
2022-10-11T01:56:59.126Z,51.40
2022-10-11T01:57:59.224Z,51.27
2022-10-11T01:58:59.325Z,51.34
2022-10-11T01:59:59.463Z,51.27
2022-10-11T02:00:59.677Z,51.49
2022-10-11T02:01:59.783Z,51.34
2022-10-11T02:02:59.860Z,51.34
2022-10-11T02:03:59.990Z,51.37
2022-10-11T02:05:00.133Z,51.18
2022-10-11T02:06:00.273Z,51.15
2022-10-11T02:07:00.560Z,51.21
2022-10-11T02:08:00.548Z,51.24
2022-10-11T02:09:04.336Z,51.21
2022-10-11T02:10:01.791Z,51.05
2022-10-11T02:11:00.966Z,51.21
2022-10-11T02:12:01.150Z,51.21
2022-10-11T02:13:01.176Z,51.18
2022-10-11T02:14:01.336Z,50.87
2022-10-11T02:15:01.447Z,51.15
2022-10-11T02:16:01.841Z,50.90
2022-10-11T02:17:01.786Z,50.74
2022-10-11T02:18:01.868Z,50.93
2022-10-11T02:19:01.989Z,50.87
2022-10-11T02:20:02.126Z,50.96
2022-10-11T02:21:02.258Z,51.15
2022-10-11T02:22:02.554Z,51.27
2022-10-11T02:23:02.557Z,51.24
2022-10-11T02:24:03.596Z,51.59
2022-10-11T02:25:02.766Z,51.59
2022-10-11T02:26:03.312Z,51.75
2022-10-11T02:27:03.075Z,51.88
2022-10-11T02:28:03.185Z,52.14
2022-10-11T02:29:03.310Z,51.91
2022-10-11T02:30:03.383Z,52.20
2022-10-11T02:31:03.515Z,52.20
2022-10-11T02:32:03.738Z,52.37
2022-10-11T02:33:03.774Z,52.66
2022-10-11T02:34:03.915Z,52.27
2022-10-11T02:35:04.042Z,52.56
2022-10-11T02:36:04.401Z,52.50
2022-10-11T02:37:04.640Z,52.53
2022-10-11T02:38:04.454Z,52.14
2022-10-11T02:39:04.641Z,52.53
2022-10-11T02:40:04.730Z,52.53
2022-10-11T02:41:04.871Z,52.20
2022-10-11T02:42:05.137Z,52.83
2022-10-11T02:43:05.249Z,52.33
2022-10-11T02:44:05.280Z,52.93
2022-10-11T02:45:05.435Z,53.17
2022-10-11T02:46:05.952Z,52.86
2022-10-11T02:47:05.761Z,53.20
2022-10-11T02:48:05.852Z,52.90
2022-10-11T02:49:05.941Z,53.20
2022-10-11T02:50:06.079Z,53.17
2022-10-11T02:51:06.207Z,53.27
2022-10-11T02:52:06.459Z,54.03
2022-10-11T02:53:06.458Z,54.20
2022-10-11T02:54:06.545Z,54.03
2022-10-11T02:55:06.686Z,53.75
2022-10-11T02:56:07.205Z,53.47
2022-10-11T02:57:07.118Z,53.58
2022-10-11T02:58:07.098Z,54.13
2022-10-11T02:59:07.228Z,54.31
2022-10-11T03:00:07.361Z,54.49
2022-10-11T03:01:07.679Z,54.35
2022-10-11T03:02:07.721Z,53.96
2022-10-11T03:03:07.755Z,54.03
2022-10-11T03:04:07.875Z,54.45
2022-10-11T03:05:08.023Z,54.31
2022-10-11T03:06:08.483Z,54.24
2022-10-11T03:07:08.416Z,54.45
2022-10-11T03:08:08.466Z,54.67
2022-10-11T03:09:08.494Z,55.10
2022-10-11T03:10:08.615Z,54.77
2022-10-11T03:11:08.765Z,55.03
2022-10-11T03:12:09.002Z,54.92
2022-10-11T03:13:09.213Z,55.54
2022-10-11T03:14:09.162Z,54.95
2022-10-11T03:15:09.305Z,54.63
2022-10-11T03:16:09.740Z,54.67
2022-10-11T03:17:34.639Z,54.92
2022-10-11T03:18:10.705Z,55.03
2022-10-11T03:19:09.835Z,55.10
2022-10-11T03:20:09.984Z,55.35
2022-10-11T03:21:10.073Z,55.06
2022-10-11T03:22:10.294Z,55.13
2022-10-11T03:23:10.421Z,55.39
2022-10-11T03:24:10.452Z,55.43
2022-10-11T03:25:10.573Z,55.43
2022-10-11T03:26:10.700Z,55.32
2022-10-11T03:27:10.895Z,55.21
2022-10-11T03:28:11.039Z,55.21
2022-10-11T03:29:11.090Z,55.24
2022-10-11T03:30:14.123Z,55.32
2022-10-11T03:31:12.358Z,55.47
2022-10-11T03:32:11.540Z,55.47
2022-10-11T03:33:11.631Z,55.47
2022-10-11T03:34:11.771Z,55.69
2022-10-11T03:35:11.927Z,55.61
2022-10-11T03:36:12.061Z,55.84
2022-10-11T03:37:12.268Z,55.76
2022-10-11T03:38:13.033Z,55.76
2022-10-11T03:39:12.421Z,55.80
2022-10-11T03:40:12.547Z,55.91
2022-10-11T03:41:12.706Z,55.84
2022-10-11T03:42:12.867Z,55.76
2022-10-11T03:43:12.968Z,55.80
2022-10-11T03:44:13.038Z,55.84
2022-10-11T03:45:13.166Z,55.80
2022-10-11T03:46:13.287Z,55.72
2022-10-11T03:47:13.495Z,55.76
2022-10-11T03:48:13.591Z,55.84
2022-10-11T03:49:13.736Z,55.84
2022-10-11T03:50:13.867Z,55.80
2022-10-11T03:51:13.994Z,55.91
2022-10-11T03:52:14.235Z,55.65
2022-10-11T03:53:14.264Z,55.72
2022-10-11T03:54:14.414Z,55.91
2022-10-11T03:55:14.533Z,55.80
2022-10-11T03:56:15.276Z,55.95
2022-10-11T03:57:14.827Z,55.80
2022-10-11T03:58:14.933Z,56.56
2022-10-11T03:59:15.032Z,55.87
2022-10-11T04:00:15.125Z,55.99
2022-10-11T04:01:15.302Z,55.95
2022-10-11T04:02:15.440Z,55.91
2022-10-11T04:03:15.503Z,55.84
2022-10-11T04:04:15.597Z,55.84
2022-10-11T04:05:15.731Z,55.95
2022-10-11T04:06:15.879Z,56.14
2022-10-11T04:07:16.618Z,56.14
2022-10-11T04:08:16.144Z,56.21
2022-10-11T04:09:16.240Z,56.14
2022-10-11T04:10:16.390Z,56.06
2022-10-11T04:11:16.518Z,56.21
2022-10-11T04:12:16.774Z,56.21
2022-10-11T04:13:16.788Z,56.21
2022-10-11T04:14:16.908Z,56.79
2022-10-11T04:15:17.058Z,56.14
2022-10-11T04:16:17.198Z,56.17
2022-10-11T04:17:17.400Z,56.36
2022-10-11T04:18:17.488Z,56.44
2022-10-11T04:19:17.618Z,56.48
2022-10-11T04:20:17.750Z,56.63
2022-10-11T04:21:17.878Z,56.67
2022-10-11T04:22:18.017Z,56.63
2022-10-11T04:23:18.148Z,56.56
2022-10-11T04:24:18.277Z,56.59
2022-10-11T04:25:18.425Z,56.59
2022-10-11T04:26:18.564Z,56.75
2022-10-11T04:27:18.729Z,56.75
2022-10-11T04:28:18.869Z,56.56
2022-10-11T04:29:18.937Z,56.75
2022-10-11T04:30:19.096Z,56.83
2022-10-11T04:31:19.305Z,56.63
2022-10-11T04:32:19.340Z,56.79
2022-10-11T04:33:19.492Z,56.71
2022-10-11T04:34:19.594Z,56.86
2022-10-11T04:35:19.702Z,56.90
2022-10-11T04:36:19.862Z,56.86
2022-10-11T04:37:19.963Z,56.83
2022-10-11T04:38:20.113Z,56.94
2022-10-11T04:39:20.264Z,56.79
2022-10-11T04:40:20.513Z,56.83
2022-10-11T04:41:20.614Z,56.86
2022-10-11T04:42:20.621Z,57.02
2022-10-11T04:43:20.752Z,56.75
2022-10-11T04:44:20.901Z,56.86
2022-10-11T04:45:21.068Z,57.17
2022-10-11T04:46:21.220Z,56.79
2022-10-11T04:47:21.300Z,56.94
2022-10-11T04:48:21.450Z,57.10
2022-10-11T04:49:21.591Z,56.75
2022-10-11T04:50:21.720Z,56.86
2022-10-11T04:51:21.843Z,56.98
2022-10-11T04:52:25.525Z,56.75
2022-10-11T04:53:22.070Z,56.83
2022-10-11T04:54:22.198Z,56.90
2022-10-11T04:55:22.349Z,57.17
2022-10-11T04:56:22.517Z,56.94
2022-10-11T04:57:22.569Z,56.90
2022-10-11T04:58:22.733Z,56.98
2022-10-11T04:59:22.849Z,57.06
2022-10-11T05:00:22.981Z,57.10
2022-10-11T05:01:23.654Z,57.17
2022-10-11T05:02:23.324Z,57.21
2022-10-11T05:03:23.415Z,57.29
2022-10-11T05:04:23.558Z,57.29
2022-10-11T05:05:23.655Z,57.21
2022-10-11T05:06:23.845Z,57.29
2022-10-11T05:07:23.924Z,57.37
2022-10-11T05:08:24.084Z,57.33
2022-10-11T05:09:24.188Z,57.41
2022-10-11T05:10:24.268Z,57.53
2022-10-11T05:11:24.456Z,57.37
2022-10-11T05:12:24.525Z,57.49
2022-10-11T05:13:24.675Z,57.49
2022-10-11T05:14:24.773Z,57.33
2022-10-11T05:15:24.913Z,57.69
2022-10-11T05:16:25.076Z,57.69
2022-10-11T05:17:25.204Z,57.69
2022-10-11T05:18:25.311Z,57.61
2022-10-11T05:19:25.457Z,57.49
2022-10-11T05:20:25.603Z,57.45
2022-10-11T05:21:25.784Z,57.61
2022-10-11T05:22:25.859Z,57.93
2022-10-11T05:23:26.022Z,57.81
2022-10-11T05:24:26.109Z,57.57
2022-10-11T05:25:26.282Z,57.77
2022-10-11T05:26:26.409Z,57.73
2022-10-11T05:27:26.487Z,57.81
2022-10-11T05:28:26.707Z,57.85
2022-10-11T05:29:26.758Z,57.89
2022-10-11T05:30:26.893Z,58.09
2022-10-11T05:31:27.047Z,58.13
2022-10-11T05:32:28.100Z,58.13
2022-10-11T05:33:27.278Z,58.29
2022-10-11T05:34:27.443Z,58.38
2022-10-11T05:35:27.507Z,58.01
2022-10-11T05:36:27.694Z,58.09
2022-10-11T05:37:27.799Z,58.01
2022-10-11T05:38:27.908Z,58.17
2022-10-11T05:39:27.976Z,58.29
2022-10-11T05:40:28.107Z,58.46
2022-10-11T05:41:28.276Z,58.58
2022-10-11T05:42:28.356Z,58.42
2022-10-11T05:43:28.495Z,58.54
2022-10-11T05:44:28.626Z,58.79
2022-10-11T05:45:28.767Z,58.70
2022-10-11T05:46:28.943Z,58.62
2022-10-11T05:47:29.045Z,58.58
2022-10-11T05:48:29.199Z,58.70
2022-10-11T05:49:29.333Z,58.70
2022-10-11T05:50:29.443Z,58.54
2022-10-11T05:51:29.609Z,58.74
2022-10-11T05:52:29.699Z,58.62
2022-10-11T05:53:29.822Z,58.54
2022-10-11T05:54:29.971Z,58.62
2022-10-11T05:55:30.112Z,58.42
2022-10-11T05:56:30.281Z,58.54
2022-10-11T05:57:30.372Z,58.50
2022-10-11T05:58:30.502Z,58.74
2022-10-11T05:59:30.641Z,58.70
2022-10-11T06:00:30.793Z,58.62
2022-10-11T06:01:31.056Z,58.70
2022-10-11T06:02:31.081Z,58.83
2022-10-11T06:03:31.188Z,58.62
2022-10-11T06:04:31.319Z,58.54
2022-10-11T06:05:31.462Z,58.74
2022-10-11T06:06:31.614Z,58.87
2022-10-11T06:07:31.699Z,58.91
2022-10-11T06:08:31.840Z,58.83
2022-10-11T06:09:31.971Z,58.99
2022-10-11T06:10:32.121Z,58.87
2022-10-11T06:11:32.238Z,58.95
2022-10-11T06:12:32.318Z,58.91
2022-10-11T06:13:32.455Z,58.91
2022-10-11T06:14:32.589Z,58.87
2022-10-11T06:15:32.717Z,58.79
2022-10-11T06:16:32.870Z,58.99
2022-10-11T06:17:32.977Z,58.70
2022-10-11T06:18:33.106Z,58.79
2022-10-11T06:19:33.253Z,59.04
2022-10-11T06:20:33.384Z,58.83
2022-10-11T06:21:33.556Z,58.87
2022-10-11T06:22:33.652Z,59.04
2022-10-11T06:23:33.784Z,58.99
2022-10-11T06:24:33.917Z,58.66
2022-10-11T06:25:34.120Z,58.99
2022-10-11T06:26:34.204Z,58.87
2022-10-11T06:27:34.374Z,58.83
2022-10-11T06:28:34.544Z,58.74
2022-10-11T06:29:34.572Z,58.87
2022-10-11T06:30:34.767Z,58.87
2022-10-11T06:31:34.839Z,58.79
2022-10-11T06:32:34.991Z,58.54
2022-10-11T06:33:35.112Z,58.66
2022-10-11T06:34:35.213Z,58.66
2022-10-11T06:35:35.413Z,58.62
2022-10-11T06:36:35.498Z,58.62
2022-10-11T06:37:35.639Z,58.42
2022-10-11T06:38:35.772Z,58.38
2022-10-11T06:39:35.940Z,58.42
2022-10-11T06:40:36.128Z,58.38
2022-10-11T06:41:36.181Z,58.29
2022-10-11T06:42:36.289Z,58.42
2022-10-11T06:43:36.388Z,58.13
2022-10-11T06:44:36.469Z,58.05
2022-10-11T06:45:36.726Z,57.93
2022-10-11T06:46:36.707Z,57.97
2022-10-11T06:47:36.858Z,57.97
2022-10-11T06:48:36.996Z,57.85
2022-10-11T06:49:37.141Z,58.42
2022-10-11T06:50:58.481Z,57.57
2022-10-11T06:51:38.437Z,57.57
2022-10-11T06:52:37.557Z,57.53
2022-10-11T06:53:37.738Z,57.77
2022-10-11T06:54:42.524Z,57.17
2022-10-11T06:55:38.945Z,57.37
2022-10-11T06:56:38.064Z,57.10
2022-10-11T06:57:38.202Z,56.83
2022-10-11T06:58:38.330Z,56.59
2022-10-11T06:59:38.461Z,56.52
2022-10-11T07:00:38.657Z,56.29
2022-10-11T07:01:38.777Z,55.84
2022-10-11T07:02:38.874Z,55.50
2022-10-11T07:03:39.012Z,55.24
2022-10-11T07:04:39.166Z,55.24
2022-10-11T07:05:39.360Z,54.85
2022-10-11T07:06:39.373Z,54.56
2022-10-11T07:07:39.492Z,54.42
2022-10-11T07:08:39.631Z,54.35
2022-10-11T07:09:39.774Z,54.10
2022-10-11T07:10:39.929Z,53.99
2022-10-11T07:11:40.036Z,53.96
2022-10-11T07:12:40.161Z,53.72
2022-10-11T07:13:40.298Z,53.58
2022-10-11T07:14:40.430Z,53.30
2022-10-11T07:15:40.610Z,52.73
2022-10-11T07:16:40.712Z,52.66
2022-10-11T07:17:40.838Z,52.33
2022-10-11T07:18:41.005Z,52.07
2022-10-11T07:19:41.122Z,52.04
2022-10-11T07:20:41.356Z,51.59
2022-10-11T07:21:41.388Z,51.12
2022-10-11T07:22:41.487Z,50.83
2022-10-11T07:23:41.680Z,50.40
2022-10-11T07:24:41.759Z,50.31
2022-10-11T07:25:42.129Z,50.19
2022-10-11T07:26:42.038Z,50.10
2022-10-11T07:27:42.182Z,50.50
2022-10-11T07:28:42.379Z,50.28
2022-10-11T07:29:42.487Z,50.44
2022-10-11T07:30:42.567Z,50.47
2022-10-11T07:31:42.788Z,50.65
2022-10-11T07:32:42.895Z,50.74
2022-10-11T07:33:42.983Z,50.16
2022-10-11T07:34:43.157Z,49.77
2022-10-11T07:35:48.092Z,49.30
2022-10-11T07:36:44.373Z,49.04
2022-10-11T07:37:44.024Z,48.50
2022-10-11T07:38:43.681Z,47.86
2022-10-11T07:39:43.805Z,47.48
2022-10-11T07:40:43.882Z,47.13
2022-10-11T07:41:46.077Z,47.08
2022-10-11T07:42:44.224Z,46.87
2022-10-11T07:43:44.312Z,46.82
2022-10-11T07:44:44.491Z,46.45
2022-10-11T07:45:44.572Z,46.14
2022-10-11T07:46:44.712Z,45.84
2022-10-11T07:47:44.844Z,45.49
2022-10-11T07:48:45.003Z,45.69
2022-10-11T07:49:45.146Z,45.94
2022-10-11T07:50:45.250Z,46.09
2022-10-11T07:51:45.353Z,46.61
2022-10-11T07:52:45.462Z,46.14
2022-10-11T07:53:45.562Z,46.97
2022-10-11T07:54:45.755Z,47.56
2022-10-11T07:55:45.851Z,47.56
2022-10-11T07:56:45.980Z,47.37
2022-10-11T07:57:46.095Z,47.29
2022-10-11T07:58:46.200Z,48.87
2022-10-11T07:59:50.126Z,49.65
2022-10-11T08:00:46.462Z,49.33
2022-10-11T08:01:46.715Z,48.56
2022-10-11T08:02:46.713Z,49.33
2022-10-11T08:03:46.801Z,49.98
2022-10-11T08:04:46.998Z,49.13
2022-10-11T08:05:46.989Z,49.77
2022-10-11T08:06:51.110Z,49.57
2022-10-11T08:07:48.221Z,48.58
2022-10-11T08:08:47.308Z,48.33
2022-10-11T08:09:47.506Z,48.14
2022-10-11T08:10:47.600Z,48.42
2022-10-11T08:11:47.688Z,48.39
2022-10-11T08:12:47.810Z,51.75
2022-10-11T08:13:47.927Z,50.19
2022-10-11T08:14:48.049Z,49.54
2022-10-11T08:15:48.127Z,49.30
2022-10-11T08:16:48.267Z,50.04
2022-10-11T08:17:48.417Z,50.19
2022-10-11T08:18:48.547Z,52.50
2022-10-11T08:19:48.667Z,53.85
2022-10-11T08:20:48.769Z,56.56
2022-10-11T08:21:48.896Z,55.61
2022-10-11T08:22:49.015Z,54.85
2022-10-11T08:23:49.144Z,55.76
2022-10-11T08:24:49.311Z,56.44
2022-10-11T08:25:49.359Z,55.91
2022-10-11T08:26:49.474Z,57.61
2022-10-11T08:27:49.625Z,58.99
2022-10-11T08:28:49.813Z,60.53
2022-10-11T08:29:49.903Z,60.36
2022-10-11T08:30:50.007Z,63.58
2022-10-11T08:31:50.104Z,68.21
2022-10-11T08:32:50.260Z,72.79
2022-10-11T08:33:50.353Z,76.25
2022-10-11T08:34:50.474Z,80.05
2022-10-11T08:35:50.599Z,79.21
2022-10-11T08:36:50.712Z,83.83
2022-10-11T08:37:50.803Z,97.30
2022-10-11T08:38:50.966Z,108.57
2022-10-11T08:39:51.025Z,123.89
2022-10-11T08:40:51.130Z,145.23
2022-10-11T08:41:51.242Z,158.02
2022-10-11T08:42:51.364Z,149.26
2022-10-11T08:43:51.558Z,154.09
2022-10-11T08:45:10.189Z,153.52
2022-10-11T08:45:52.757Z,150.34
2022-10-11T08:46:53.218Z,146.25
2022-10-11T08:47:52.023Z,142.75
2022-10-11T08:48:52.182Z,143.24
2022-10-11T08:49:52.241Z,146.90
2022-10-11T08:50:52.372Z,158.02
2022-10-11T08:51:52.472Z,156.98
2022-10-11T08:52:52.624Z,167.88
2022-10-11T08:53:52.895Z,163.60
2022-10-11T08:54:52.872Z,163.44
2022-10-11T08:55:52.973Z,160.30
2022-10-11T08:56:53.092Z,157.88
2022-10-11T08:57:53.305Z,148.73
2022-10-11T08:58:53.441Z,140.59
2022-10-11T08:59:53.561Z,156.40
2022-10-11T09:00:53.637Z,169.24
2022-10-11T09:01:53.833Z,187.75
2022-10-11T09:03:08.068Z,200.11
2022-10-11T09:03:55.061Z,197.11
2022-10-11T09:04:54.121Z,195.81
2022-10-11T09:05:54.220Z,193.16
2022-10-11T09:06:54.319Z,198.54
2022-10-11T09:07:54.511Z,214.08
2022-10-11T09:08:54.651Z,221.01
2022-10-11T09:09:54.795Z,226.97
2022-10-11T09:10:54.881Z,234.59
2022-10-11T09:11:55.031Z,231.61
2022-10-11T09:12:55.198Z,246.40
2022-10-11T09:13:55.408Z,245.48
2022-10-11T09:14:55.410Z,249.96
2022-10-11T09:15:55.522Z,257.01
2022-10-11T09:16:55.613Z,282.21
2022-10-11T09:17:55.778Z,285.65
2022-10-11T09:18:55.921Z,263.83
2022-10-11T09:19:56.042Z,257.21
2022-10-11T09:20:56.150Z,250.73
2022-10-11T09:21:56.250Z,255.61
2022-10-11T09:22:56.409Z,274.42
2022-10-11T09:23:56.560Z,294.63
2022-10-11T09:24:56.627Z,302.51
2022-10-11T09:25:56.729Z,266.84
2022-10-11T09:26:56.828Z,277.91
2022-10-11T09:28:02.837Z,276.74
2022-10-11T09:29:01.129Z,293.58
2022-10-11T09:29:57.259Z,294.10
2022-10-11T09:30:57.409Z,313.49
2022-10-11T09:31:57.509Z,327.25
2022-10-11T09:32:57.649Z,328.89
2022-10-11T09:33:57.817Z,351.43
2022-10-11T09:34:57.898Z,354.09
2022-10-11T09:35:57.989Z,360.31
2022-10-11T09:36:58.129Z,351.43
2022-10-11T09:37:58.280Z,365.53
2022-10-11T09:39:00.892Z,370.06
2022-10-11T09:39:58.606Z,390.88
2022-10-11T09:40:58.714Z,405.37
2022-10-11T09:41:58.810Z,408.85
2022-10-11T09:42:58.959Z,413.15
2022-10-11T09:43:59.163Z,391.56
2022-10-11T09:44:59.209Z,380.39
2022-10-11T09:45:59.310Z,362.30
2022-10-11T09:46:59.421Z,362.30
2022-10-11T09:47:59.508Z,381.92
2022-10-11T09:48:59.709Z,389.96
2022-10-11T09:49:59.767Z,405.62
2022-10-11T09:50:59.886Z,418.60
2022-10-11T09:51:59.998Z,431.05
2022-10-11T09:53:00.111Z,450.56
2022-10-11T09:54:00.279Z,458.62
2022-10-11T09:55:00.411Z,468.28
2022-10-11T09:56:00.525Z,469.60
2022-10-11T09:57:00.597Z,472.26
2022-10-11T09:58:00.717Z,471.93
2022-10-11T09:59:00.909Z,489.24
2022-10-11T10:00:00.959Z,494.68
2022-10-11T10:01:06.725Z,499.50
2022-10-11T10:02:02.254Z,515.72
2022-10-11T10:03:01.306Z,516.92
2022-10-11T10:04:01.449Z,514.14
2022-10-11T10:05:01.565Z,489.24
2022-10-11T10:06:01.695Z,441.32
2022-10-11T10:07:01.785Z,397.16
2022-10-11T10:08:04.783Z,396.92
2022-10-11T10:09:02.126Z,433.85
2022-10-11T10:10:02.222Z,476.65
2022-10-11T10:11:02.266Z,495.79
2022-10-11T10:12:02.381Z,505.18
2022-10-11T10:13:02.494Z,524.24
2022-10-11T10:14:02.685Z,510.20
2022-10-11T10:15:02.761Z,528.39
2022-10-11T10:16:03.330Z,554.31
2022-10-11T10:17:02.962Z,564.63
2022-10-11T10:18:03.064Z,577.84
2022-10-11T10:19:03.305Z,585.45
2022-10-11T10:20:03.446Z,585.45
2022-10-11T10:21:03.428Z,588.55
2022-10-11T10:22:03.564Z,598.59
2022-10-11T10:23:03.686Z,593.27
2022-10-11T10:24:04.022Z,581.88
2022-10-11T10:25:03.923Z,584.43
2022-10-11T10:26:04.538Z,578.85
2022-10-11T10:27:04.162Z,571.90
2022-10-11T10:28:04.315Z,568.48
2022-10-11T10:29:04.513Z,566.55
2022-10-11T10:30:04.543Z,554.31
2022-10-11T10:31:04.623Z,555.23
2022-10-11T10:32:20.000Z,548.83
2022-10-11T10:33:05.866Z,546.58
2022-10-11T10:34:05.106Z,546.14
2022-10-11T10:35:05.159Z,548.83
2022-10-11T10:36:05.359Z,545.69
2022-10-11T10:37:05.275Z,538.20
2022-10-11T10:38:05.428Z,530.92
2022-10-11T10:39:05.648Z,526.72
2022-10-11T10:40:05.639Z,543.91
2022-10-11T10:41:05.735Z,534.75
2022-10-11T10:42:05.917Z,543.47
2022-10-11T10:43:06.036Z,561.31
2022-10-11T10:44:06.269Z,570.92
2022-10-11T10:45:11.181Z,588.04
2022-10-11T10:46:07.783Z,579.35
2022-10-11T10:47:06.573Z,585.45
2022-10-11T10:48:06.661Z,599.13
2022-10-11T10:50:07.939Z,632.67
2022-10-11T10:51:10.338Z,638.73
2022-10-11T10:52:07.184Z,652.48
2022-10-11T10:53:07.294Z,652.48
2022-10-11T10:54:07.435Z,651.84
2022-10-11T10:55:07.542Z,656.98
2022-10-11T10:56:08.073Z,666.17
2022-10-11T10:57:07.783Z,667.50
2022-10-11T10:58:07.898Z,655.69
2022-10-11T10:59:08.058Z,649.30
2022-10-11T11:00:08.189Z,655.04
2022-10-11T11:01:08.318Z,669.51
2022-10-11T11:02:28.163Z,676.30
2022-10-11T11:03:09.590Z,657.63
2022-10-11T11:04:08.799Z,677.67
2022-10-11T11:05:08.783Z,698.25
2022-10-11T11:06:09.293Z,701.19
2022-10-11T11:07:09.048Z,716.25
2022-10-11T11:08:09.161Z,746.23
2022-10-11T11:09:09.366Z,781.61
2022-10-11T11:10:09.377Z,790.41
2022-10-11T11:11:09.468Z,772.57
2022-10-11T11:12:09.641Z,773.46
2022-10-11T11:13:09.733Z,760.25
2022-10-11T11:14:09.907Z,754.24
2022-10-11T11:15:10.008Z,782.53
2022-10-11T11:16:10.081Z,765.92
2022-10-11T11:17:10.175Z,797.97
2022-10-11T11:18:10.338Z,814.52
2022-10-11T11:19:10.566Z,832.81
2022-10-11T11:20:10.608Z,829.19
2022-10-11T11:21:10.776Z,841.74
2022-10-11T11:22:10.897Z,809.58
2022-10-11T11:23:11.011Z,814.52
2022-10-11T11:24:11.157Z,820.53
2022-10-11T11:25:11.247Z,832.29
2022-10-11T11:26:11.437Z,831.26
2022-10-11T11:27:11.579Z,804.70
2022-10-11T11:28:11.706Z,791.34
2022-10-11T11:29:11.940Z,797.49
2022-10-11T11:30:11.930Z,783.45
2022-10-11T11:31:12.018Z,808.11
2022-10-11T11:32:12.656Z,831.78
2022-10-11T11:33:12.217Z,858.52
2022-10-11T11:34:12.546Z,864.08
2022-10-11T11:35:12.486Z,839.09
2022-10-11T11:36:12.604Z,812.04
2022-10-11T11:37:12.736Z,782.07
2022-10-11T11:38:12.847Z,798.45
2022-10-11T11:39:12.987Z,806.65
2022-10-11T11:40:13.154Z,816.01
2022-10-11T11:41:13.197Z,822.55
2022-10-11T11:42:13.356Z,820.02
2022-10-11T11:43:13.434Z,821.54
2022-10-11T11:44:14.579Z,826.62
2022-10-11T11:45:13.666Z,814.02
2022-10-11T11:46:13.765Z,821.03
2022-10-11T11:47:13.939Z,831.78
2022-10-11T11:48:14.035Z,839.62
2022-10-11T11:49:14.234Z,853.58
2022-10-11T11:50:14.393Z,848.16
2022-10-11T11:51:14.434Z,851.95
2022-10-11T11:52:14.543Z,841.74
2022-10-11T11:53:14.663Z,836.47
2022-10-11T11:54:14.830Z,817.51
2022-10-11T11:55:14.933Z,828.16
2022-10-11T11:56:15.012Z,843.34
2022-10-11T11:57:15.123Z,867.45
2022-10-11T11:58:15.262Z,830.22
2022-10-11T11:59:15.413Z,804.70
2022-10-11T12:00:15.475Z,794.17
2022-10-11T12:01:15.642Z,789.47
2022-10-11T12:02:15.826Z,754.66
2022-10-11T12:03:15.873Z,763.29
2022-10-11T12:04:16.058Z,756.37
2022-10-11T12:05:16.211Z,761.99
2022-10-11T12:06:16.222Z,785.29
2022-10-11T12:07:17.483Z,776.16
2022-10-11T12:08:16.469Z,779.79
2022-10-11T12:09:16.652Z,792.28
2022-10-11T12:10:16.730Z,815.52
2022-10-11T12:11:16.825Z,828.16
2022-10-11T12:12:16.945Z,809.09
2022-10-11T12:13:17.085Z,782.53
2022-10-11T12:14:17.359Z,766.36
2022-10-11T12:15:17.335Z,787.15
2022-10-11T12:16:17.461Z,823.57
2022-10-11T12:17:17.554Z,844.94
2022-10-11T12:18:17.711Z,864.64
2022-10-11T12:19:17.861Z,876.56
2022-10-11T12:20:17.909Z,882.35
2022-10-11T12:21:18.038Z,870.84
2022-10-11T12:22:18.163Z,862.96
2022-10-11T12:23:20.076Z,854.13
2022-10-11T12:24:18.425Z,836.99
2022-10-11T12:25:18.891Z,846.01
2022-10-11T12:26:18.597Z,859.07
2022-10-11T12:27:18.707Z,843.34
2022-10-11T12:28:18.861Z,869.71
2022-10-11T12:29:19.214Z,862.40
2022-10-11T12:30:19.077Z,854.13
2022-10-11T12:31:19.243Z,854.67
2022-10-11T12:32:19.379Z,852.49
2022-10-11T12:33:19.447Z,866.32
2022-10-11T12:34:20.590Z,887.04
2022-10-11T12:35:19.745Z,885.28
2022-10-11T12:36:19.856Z,874.26
2022-10-11T12:37:19.971Z,860.73
2022-10-11T12:38:20.076Z,857.97
2022-10-11T12:39:20.346Z,869.14
2022-10-11T12:40:20.375Z,868.01
2022-10-11T12:41:20.416Z,865.20
2022-10-11T12:42:20.577Z,836.47
2022-10-11T12:43:20.686Z,825.60
2022-10-11T12:44:20.913Z,804.70
2022-10-11T12:45:20.885Z,824.58
2022-10-11T12:46:21.007Z,821.03
2022-10-11T12:47:21.139Z,812.04